createdAt,value
2018-05-18T00:01:02.439Z,0
2018-05-18T00:02:02.996Z,0
2018-05-18T00:03:03.553Z,0
2018-05-18T00:04:04.097Z,0
2018-05-18T00:05:04.632Z,0
2018-05-18T00:06:05.178Z,0
2018-05-18T00:07:05.725Z,0
2018-05-18T00:08:06.268Z,0
2018-05-18T00:09:06.809Z,0
2018-05-18T00:10:07.357Z,0
2018-05-18T00:11:07.903Z,0
2018-05-18T00:12:08.449Z,0
2018-05-18T00:13:08.994Z,0
2018-05-18T00:14:09.543Z,0
2018-05-18T00:15:10.087Z,0
2018-05-18T00:16:10.630Z,0
2018-05-18T00:17:11.178Z,0
2018-05-18T00:18:11.721Z,0
2018-05-18T00:19:12.277Z,0
2018-05-18T00:20:12.808Z,0
2018-05-18T00:21:13.347Z,0
2018-05-18T00:22:13.891Z,0
2018-05-18T00:23:14.440Z,0
2018-05-18T00:24:14.983Z,0
2018-05-18T00:25:15.532Z,0
2018-05-18T00:26:16.077Z,0
2018-05-18T00:27:16.617Z,0
2018-05-18T00:28:17.162Z,0
2018-05-18T00:29:17.708Z,0
2018-05-18T00:30:18.247Z,0
2018-05-18T00:31:18.791Z,0
2018-05-18T00:32:19.339Z,0
2018-05-18T00:33:19.890Z,0
2018-05-18T00:34:20.427Z,0
2018-05-18T00:35:20.966Z,0
2018-05-18T00:36:21.512Z,0
2018-05-18T00:37:22.060Z,0
2018-05-18T00:38:22.600Z,0
2018-05-18T00:39:23.144Z,0
2018-05-18T00:40:23.692Z,0
2018-05-18T00:41:24.238Z,0
2018-05-18T00:42:24.780Z,0
2018-05-18T00:43:25.332Z,0
2018-05-18T00:44:25.873Z,0
2018-05-18T00:45:26.418Z,0
2018-05-18T00:46:26.958Z,0
2018-05-18T00:47:27.498Z,0
2018-05-18T00:48:28.050Z,0
2018-05-18T00:49:28.592Z,0
2018-05-18T00:50:29.138Z,0
2018-05-18T00:51:29.688Z,0
2018-05-18T00:52:30.235Z,0
2018-05-18T00:53:30.775Z,0
2018-05-18T00:54:31.322Z,0
2018-05-18T00:55:31.865Z,0
2018-05-18T00:56:32.407Z,0
2018-05-18T00:57:32.946Z,0
2018-05-18T00:58:33.495Z,0
2018-05-18T00:59:34.036Z,0
2018-05-18T01:00:34.585Z,0
2018-05-18T01:01:35.130Z,0
2018-05-18T01:02:35.678Z,0
2018-05-18T01:03:36.228Z,0
2018-05-18T01:04:36.779Z,0
2018-05-18T01:05:37.320Z,0
2018-05-18T01:06:37.859Z,0
2018-05-18T01:07:38.405Z,0
2018-05-18T01:08:38.956Z,0
2018-05-18T01:09:39.502Z,0
2018-05-18T01:10:40.046Z,0
2018-05-18T01:11:40.595Z,0
2018-05-18T01:12:41.136Z,0
2018-05-18T01:13:41.682Z,0
2018-05-18T01:14:42.225Z,0
2018-05-18T01:15:42.772Z,0
2018-05-18T01:16:43.316Z,0
2018-05-18T01:17:43.864Z,0
2018-05-18T01:18:44.406Z,0
2018-05-18T01:19:44.952Z,0
2018-05-18T01:20:45.502Z,0
2018-05-18T01:21:46.047Z,0
2018-05-18T01:22:46.587Z,0
2018-05-18T01:23:47.135Z,0
2018-05-18T01:24:47.685Z,0
2018-05-18T01:25:48.232Z,0
2018-05-18T01:26:48.771Z,0
2018-05-18T01:27:49.320Z,0
2018-05-18T01:28:49.865Z,0
2018-05-18T01:29:50.410Z,0
2018-05-18T01:30:50.958Z,0
2018-05-18T01:31:51.509Z,0
2018-05-18T01:32:52.048Z,0
2018-05-18T01:33:52.593Z,0
2018-05-18T01:34:53.141Z,0
2018-05-18T01:35:53.687Z,0
2018-05-18T01:36:54.231Z,0
2018-05-18T01:37:54.774Z,0
2018-05-18T01:38:55.321Z,0
2018-05-18T01:39:55.859Z,0
2018-05-18T01:40:56.407Z,0
2018-05-18T01:41:56.957Z,0
2018-05-18T01:42:57.503Z,0
2018-05-18T01:43:58.054Z,0
2018-05-18T01:44:58.600Z,0
2018-05-18T01:45:59.147Z,0
2018-05-18T01:46:59.692Z,0
2018-05-18T01:48:00.243Z,0
2018-05-18T01:49:00.792Z,0
2018-05-18T01:50:01.341Z,0
2018-05-18T01:51:01.885Z,0
2018-05-18T01:52:02.429Z,0
2018-05-18T01:53:02.973Z,0
2018-05-18T01:54:03.514Z,0
2018-05-18T01:55:04.065Z,0
2018-05-18T01:56:04.613Z,0
2018-05-18T01:57:05.161Z,0
2018-05-18T01:58:05.701Z,0
2018-05-18T01:59:06.248Z,0
2018-05-18T02:00:06.793Z,0
2018-05-18T02:01:07.337Z,0
2018-05-18T02:02:07.882Z,0
2018-05-18T02:03:08.422Z,0
2018-05-18T02:04:08.970Z,0
2018-05-18T02:05:09.510Z,0
2018-05-18T02:06:10.058Z,0
2018-05-18T02:07:10.614Z,0
2018-05-18T02:08:11.153Z,0
2018-05-18T02:09:11.697Z,0
2018-05-18T02:10:12.248Z,0
2018-05-18T02:11:12.792Z,0
2018-05-18T02:12:13.340Z,0
2018-05-18T02:13:13.881Z,0
2018-05-18T02:14:14.422Z,0
2018-05-18T02:15:14.962Z,0
2018-05-18T02:16:15.507Z,0
2018-05-18T02:17:16.054Z,0
2018-05-18T02:18:16.591Z,0
2018-05-18T02:19:17.137Z,0
2018-05-18T02:20:17.684Z,0
2018-05-18T02:21:18.232Z,0
2018-05-18T02:22:18.777Z,0
2018-05-18T02:23:19.324Z,0
2018-05-18T02:24:19.861Z,0
2018-05-18T02:25:20.401Z,0
2018-05-18T02:26:20.954Z,0
2018-05-18T02:27:21.495Z,0
2018-05-18T02:28:22.070Z,0
2018-05-18T02:29:22.589Z,0
2018-05-18T02:30:23.132Z,0
2018-05-18T02:31:23.676Z,0
2018-05-18T02:32:24.215Z,0
2018-05-18T02:33:24.753Z,0
2018-05-18T02:34:25.302Z,0
2018-05-18T02:35:25.847Z,0
2018-05-18T02:36:26.393Z,0
2018-05-18T02:37:26.934Z,0
2018-05-18T02:38:27.482Z,0
2018-05-18T02:39:28.029Z,0
2018-05-18T02:40:28.574Z,0
2018-05-18T02:41:29.125Z,0
2018-05-18T02:42:29.664Z,0
2018-05-18T02:43:30.207Z,0
2018-05-18T02:44:30.743Z,0
2018-05-18T02:45:31.290Z,0
2018-05-18T02:46:31.830Z,0
2018-05-18T02:47:32.383Z,0
2018-05-18T02:48:32.922Z,0
2018-05-18T02:49:33.467Z,0
2018-05-18T02:50:34.010Z,0
2018-05-18T02:51:34.554Z,0
2018-05-18T02:52:35.098Z,0
2018-05-18T02:53:35.748Z,0
2018-05-18T02:54:36.181Z,0
2018-05-18T02:55:36.721Z,0
2018-05-18T02:56:37.266Z,0
2018-05-18T02:57:37.814Z,0
2018-05-18T02:58:38.353Z,0
2018-05-18T02:59:38.902Z,0
2018-05-18T03:00:39.450Z,0
2018-05-18T03:01:39.990Z,0
2018-05-18T03:02:40.550Z,0
2018-05-18T03:03:41.088Z,0
2018-05-18T03:04:41.632Z,0
2018-05-18T03:05:42.183Z,0
2018-05-18T03:06:42.719Z,0
2018-05-18T03:07:43.259Z,0
2018-05-18T03:08:43.803Z,0
2018-05-18T03:09:44.358Z,0
2018-05-18T03:10:44.894Z,0
2018-05-18T03:11:45.431Z,0
2018-05-18T03:12:45.970Z,0
2018-05-18T03:13:46.531Z,0
2018-05-18T03:14:47.092Z,0
2018-05-18T03:15:47.657Z,0
2018-05-18T03:16:48.202Z,0
2018-05-18T03:17:48.753Z,0
2018-05-18T03:18:49.302Z,0
2018-05-18T03:19:49.845Z,0
2018-05-18T03:20:50.392Z,0
2018-05-18T03:21:50.933Z,0
2018-05-18T03:22:51.482Z,0
2018-05-18T03:23:52.027Z,0
2018-05-18T03:24:52.573Z,0
2018-05-18T03:25:53.120Z,0
2018-05-18T03:26:53.669Z,0
2018-05-18T03:27:54.217Z,0
2018-05-18T03:28:54.766Z,0
2018-05-18T03:29:55.297Z,0
2018-05-18T03:30:55.847Z,0
2018-05-18T03:31:56.395Z,0
2018-05-18T03:32:56.954Z,0
2018-05-18T03:33:57.517Z,0
2018-05-18T03:34:58.067Z,5
2018-05-18T03:35:58.622Z,5
2018-05-18T03:36:59.175Z,5
2018-05-18T03:37:59.720Z,5
2018-05-18T03:39:00.268Z,5
2018-05-18T03:40:00.809Z,5
2018-05-18T03:41:01.360Z,5
2018-05-18T03:42:01.907Z,5
2018-05-18T03:43:02.456Z,5
2018-05-18T03:44:06.039Z,5
2018-05-18T03:45:06.580Z,5
2018-05-18T03:46:07.128Z,10
2018-05-18T03:47:07.680Z,10
2018-05-18T03:48:08.230Z,10
2018-05-18T03:49:08.771Z,15
2018-05-18T03:50:09.316Z,15
2018-05-18T03:51:09.862Z,15
2018-05-18T03:52:10.408Z,15
2018-05-18T03:53:10.956Z,15
2018-05-18T03:54:11.508Z,20
2018-05-18T03:55:12.058Z,20
2018-05-18T03:56:12.611Z,20
2018-05-18T03:57:13.150Z,20
2018-05-18T03:58:13.699Z,20
2018-05-18T03:59:14.242Z,25
2018-05-18T04:00:14.790Z,25
2018-05-18T04:01:15.335Z,25
2018-05-18T04:02:15.885Z,25
2018-05-18T04:03:16.427Z,30
2018-05-18T04:04:16.977Z,30
2018-05-18T04:05:17.523Z,35
2018-05-18T04:06:18.289Z,35
2018-05-18T04:07:18.844Z,40
2018-05-18T04:08:19.396Z,40
2018-05-18T04:09:19.938Z,40
2018-05-18T04:10:20.537Z,40
2018-05-18T04:11:21.039Z,40
2018-05-18T04:12:21.616Z,40
2018-05-18T04:13:22.138Z,45
2018-05-18T04:14:22.687Z,50
2018-05-18T04:15:23.242Z,55
2018-05-18T04:16:23.797Z,55
2018-05-18T04:17:24.338Z,55
2018-05-18T04:18:24.892Z,55
2018-05-18T04:19:25.514Z,60
2018-05-18T04:20:25.985Z,60
2018-05-18T04:21:26.529Z,60
2018-05-18T04:22:27.074Z,60
2018-05-18T04:23:27.632Z,60
2018-05-18T04:24:28.248Z,60
2018-05-18T04:25:28.723Z,60
2018-05-18T04:26:29.265Z,60
2018-05-18T04:27:29.816Z,65
2018-05-18T04:28:30.365Z,70
2018-05-18T04:29:30.911Z,70
2018-05-18T04:30:31.559Z,70
2018-05-18T04:31:32.005Z,70
2018-05-18T04:32:32.556Z,75
2018-05-18T04:33:33.100Z,80
2018-05-18T04:34:33.681Z,80
2018-05-18T04:35:34.205Z,85
2018-05-18T04:36:34.757Z,85
2018-05-18T04:37:35.309Z,90
2018-05-18T04:38:35.863Z,95
2018-05-18T04:39:36.436Z,85
2018-05-18T04:40:36.966Z,85
2018-05-18T04:41:37.520Z,90
2018-05-18T04:42:38.066Z,100
2018-05-18T04:43:38.615Z,110
2018-05-18T04:44:39.173Z,110
2018-05-18T04:45:39.719Z,110
2018-05-18T04:46:40.385Z,115
2018-05-18T04:47:40.935Z,120
2018-05-18T04:48:41.486Z,120
2018-05-18T04:49:42.040Z,125
2018-05-18T04:50:42.592Z,125
2018-05-18T04:51:43.146Z,120
2018-05-18T04:52:43.698Z,125
2018-05-18T04:53:44.253Z,125
2018-05-18T04:54:44.804Z,125
2018-05-18T04:55:45.353Z,130
2018-05-18T04:56:45.904Z,135
2018-05-18T04:57:46.459Z,145
2018-05-18T04:58:47.042Z,160
2018-05-18T04:59:47.555Z,175
2018-05-18T05:00:48.109Z,185
2018-05-18T05:01:48.657Z,185
2018-05-18T05:02:49.209Z,175
2018-05-18T05:03:49.767Z,165
2018-05-18T05:04:50.315Z,165
2018-05-18T05:05:50.868Z,180
2018-05-18T05:06:51.421Z,190
2018-05-18T05:07:51.972Z,195
2018-05-18T05:08:52.520Z,190
2018-05-18T05:09:53.070Z,185
2018-05-18T05:10:53.616Z,180
2018-05-18T05:11:54.169Z,175
2018-05-18T05:12:54.715Z,175
2018-05-18T05:13:55.271Z,175
2018-05-18T05:14:55.822Z,170
2018-05-18T05:15:56.372Z,175
2018-05-18T05:16:56.927Z,185
2018-05-18T05:17:57.516Z,190
2018-05-18T05:18:58.026Z,195
2018-05-18T05:19:58.578Z,195
2018-05-18T05:20:59.129Z,200
2018-05-18T05:21:59.681Z,205
2018-05-18T05:23:00.238Z,210
2018-05-18T05:24:00.788Z,225
2018-05-18T05:25:01.337Z,245
2018-05-18T05:26:01.889Z,255
2018-05-18T05:27:02.446Z,255
2018-05-18T05:28:02.997Z,250
2018-05-18T05:29:03.545Z,255
2018-05-18T05:30:04.103Z,395
2018-05-18T05:31:04.876Z,300
2018-05-18T05:32:05.428Z,270
2018-05-18T05:33:05.976Z,260
2018-05-18T05:34:06.533Z,285
2018-05-18T05:35:07.089Z,315
2018-05-18T05:36:07.644Z,330
2018-05-18T05:37:08.201Z,335
2018-05-18T05:38:08.758Z,335
2018-05-18T05:39:09.309Z,350
2018-05-18T05:40:09.857Z,355
2018-05-18T05:41:10.407Z,375
2018-05-18T05:42:10.961Z,535
2018-05-18T05:43:11.517Z,370
2018-05-18T05:44:12.073Z,385
2018-05-18T05:45:12.624Z,410
2018-05-18T05:46:13.187Z,410
2018-05-18T05:47:13.741Z,415
2018-05-18T05:48:14.296Z,380
2018-05-18T05:49:14.855Z,375
2018-05-18T05:50:15.408Z,385
2018-05-18T05:51:15.962Z,415
2018-05-18T05:52:16.516Z,440
2018-05-18T05:53:17.074Z,435
2018-05-18T05:54:17.633Z,415
2018-05-18T05:55:18.188Z,415
2018-05-18T05:56:18.744Z,430
2018-05-18T05:57:19.302Z,495
2018-05-18T05:58:19.870Z,370
2018-05-18T05:59:20.416Z,380
2018-05-18T06:00:20.973Z,560
2018-05-18T06:01:21.580Z,440
2018-05-18T06:02:22.132Z,390
2018-05-18T06:03:22.692Z,440
2018-05-18T06:04:23.246Z,430
2018-05-18T06:05:23.829Z,395
2018-05-18T06:06:24.363Z,380
2018-05-18T06:07:24.917Z,370
2018-05-18T06:08:25.479Z,375
2018-05-18T06:09:26.038Z,390
2018-05-18T06:10:26.594Z,405
2018-05-18T06:11:27.151Z,405
2018-05-18T06:12:27.711Z,400
2018-05-18T06:13:28.267Z,385
2018-05-18T06:14:28.821Z,365
2018-05-18T06:15:29.381Z,345
2018-05-18T06:16:29.937Z,345
2018-05-18T06:17:30.507Z,370
2018-05-18T06:18:31.050Z,415
2018-05-18T06:19:31.609Z,440
2018-05-18T06:20:32.157Z,435
2018-05-18T06:21:32.715Z,415
2018-05-18T06:22:33.270Z,420
2018-05-18T06:23:33.827Z,455
2018-05-18T06:24:34.383Z,485
2018-05-18T06:25:34.932Z,515
2018-05-18T06:26:35.488Z,540
2018-05-18T06:27:36.043Z,575
2018-05-18T06:28:36.681Z,620
2018-05-18T06:29:37.153Z,690
2018-05-18T06:30:37.708Z,960
2018-05-18T06:31:38.262Z,780
2018-05-18T06:32:38.821Z,745
2018-05-18T06:33:39.375Z,600
2018-05-18T06:34:40.017Z,585
2018-05-18T06:35:40.491Z,580
2018-05-18T06:36:41.045Z,575
2018-05-18T06:37:41.597Z,570
2018-05-18T06:38:42.155Z,590
2018-05-18T06:39:42.709Z,1015
2018-05-18T06:40:43.268Z,1205
2018-05-18T06:41:43.825Z,1255
2018-05-18T06:42:44.389Z,1255
2018-05-18T06:43:44.949Z,1245
2018-05-18T06:44:45.511Z,800
2018-05-18T06:45:46.084Z,710
2018-05-18T06:46:46.668Z,710
2018-05-18T06:47:47.183Z,1070
2018-05-18T06:48:47.742Z,910
2018-05-18T06:49:48.312Z,1115
2018-05-18T06:50:48.867Z,745
2018-05-18T06:51:49.426Z,755
2018-05-18T06:52:49.988Z,730
2018-05-18T06:53:50.543Z,715
2018-05-18T06:54:51.107Z,850
2018-05-18T06:55:51.662Z,800
2018-05-18T06:56:52.243Z,765
2018-05-18T06:57:52.807Z,880
2018-05-18T06:58:53.395Z,865
2018-05-18T06:59:53.932Z,805
2018-05-18T07:00:54.483Z,840
2018-05-18T07:01:55.044Z,755
2018-05-18T07:02:55.601Z,635
2018-05-18T07:03:56.172Z,655
2018-05-18T07:04:56.728Z,660
2018-05-18T07:05:57.277Z,670
2018-05-18T07:06:57.840Z,745
2018-05-18T07:07:58.401Z,885
2018-05-18T07:08:58.965Z,765
2018-05-18T07:09:59.524Z,795
2018-05-18T07:11:00.093Z,810
2018-05-18T07:12:00.651Z,1405
2018-05-18T07:13:01.209Z,745
2018-05-18T07:14:01.762Z,700
2018-05-18T07:15:02.328Z,575
2018-05-18T07:16:02.884Z,490
2018-05-18T07:17:03.442Z,450
2018-05-18T07:18:04.024Z,430
2018-05-18T07:19:04.620Z,445
2018-05-18T07:20:05.210Z,585
2018-05-18T07:21:05.781Z,540
2018-05-18T07:22:06.349Z,620
2018-05-18T07:23:07.011Z,1090
2018-05-18T07:24:07.482Z,980
2018-05-18T07:25:08.077Z,800
2018-05-18T07:26:08.653Z,775
2018-05-18T07:27:09.272Z,1370
2018-05-18T07:28:09.833Z,1630
2018-05-18T07:29:10.397Z,990
2018-05-18T07:30:11.051Z,800
2018-05-18T07:31:11.512Z,770
2018-05-18T07:32:12.070Z,740
2018-05-18T07:33:12.629Z,715
2018-05-18T07:34:13.189Z,665
2018-05-18T07:35:13.750Z,630
2018-05-18T07:36:14.337Z,605
2018-05-18T07:37:14.865Z,605
2018-05-18T07:38:15.428Z,650
2018-05-18T07:39:15.988Z,1505
2018-05-18T07:40:16.553Z,1520
2018-05-18T07:41:17.119Z,1580
2018-05-18T07:42:17.684Z,1700
2018-05-18T07:43:18.257Z,1190
2018-05-18T07:44:18.822Z,1960
2018-05-18T07:45:19.393Z,2005
2018-05-18T07:46:19.963Z,1100
2018-05-18T07:47:20.531Z,1055
2018-05-18T07:48:21.094Z,1005
2018-05-18T07:49:21.653Z,1050
2018-05-18T07:50:22.218Z,865
2018-05-18T07:51:22.778Z,805
2018-05-18T07:52:23.336Z,725
2018-05-18T07:53:23.903Z,680
2018-05-18T07:54:24.465Z,650
2018-05-18T07:55:25.027Z,660
2018-05-18T07:56:25.590Z,685
2018-05-18T07:57:26.160Z,725
2018-05-18T07:58:26.772Z,735
2018-05-18T07:59:27.421Z,715
2018-05-18T08:00:27.896Z,655
2018-05-18T08:01:28.449Z,610
2018-05-18T08:02:29.010Z,605
2018-05-18T08:03:29.566Z,625
2018-05-18T08:04:30.121Z,705
2018-05-18T08:05:30.688Z,925
2018-05-18T08:06:31.237Z,1345
2018-05-18T08:07:31.798Z,930
2018-05-18T08:08:32.358Z,840
2018-05-18T08:09:32.918Z,815
2018-05-18T08:10:33.483Z,780
2018-05-18T08:11:34.037Z,735
2018-05-18T08:12:34.593Z,685
2018-05-18T08:13:35.198Z,635
2018-05-18T08:14:35.762Z,625
2018-05-18T08:15:36.317Z,660
2018-05-18T08:16:36.873Z,760
2018-05-18T08:17:37.427Z,970
2018-05-18T08:18:37.992Z,1445
2018-05-18T08:19:38.545Z,1055
2018-05-18T08:20:39.109Z,880
2018-05-18T08:21:39.736Z,810
2018-05-18T08:22:40.226Z,750
2018-05-18T08:23:40.786Z,715
2018-05-18T08:24:41.339Z,720
2018-05-18T08:25:41.900Z,720
2018-05-18T08:26:42.461Z,720
2018-05-18T08:27:43.068Z,735
2018-05-18T08:28:43.579Z,750
2018-05-18T08:29:44.138Z,765
2018-05-18T08:30:44.693Z,840
2018-05-18T08:31:45.260Z,985
2018-05-18T08:32:45.809Z,1615
2018-05-18T08:33:46.364Z,1055
2018-05-18T08:34:46.925Z,700
2018-05-18T08:35:47.488Z,620
2018-05-18T08:36:48.042Z,650
2018-05-18T08:37:48.599Z,750
2018-05-18T08:38:49.158Z,990
2018-05-18T08:39:49.721Z,870
2018-05-18T08:40:50.274Z,925
2018-05-18T08:41:50.835Z,1420
2018-05-18T08:42:51.392Z,1795
2018-05-18T08:43:51.955Z,1485
2018-05-18T08:44:52.512Z,1500
2018-05-18T08:45:53.074Z,1015
2018-05-18T08:46:53.628Z,1030
2018-05-18T08:47:54.192Z,1115
2018-05-18T08:48:54.808Z,1250
2018-05-18T08:49:55.365Z,1200
2018-05-18T08:50:55.935Z,1205
2018-05-18T08:51:56.498Z,1235
2018-05-18T08:52:57.097Z,1270
2018-05-18T08:53:57.625Z,1400
2018-05-18T08:54:58.189Z,1345
2018-05-18T08:55:58.752Z,1285
2018-05-18T08:56:59.315Z,1155
2018-05-18T08:57:59.881Z,1120
2018-05-18T08:59:00.446Z,1025
2018-05-18T09:00:01.069Z,995
2018-05-18T09:01:01.571Z,1455
2018-05-18T09:02:02.136Z,1075
2018-05-18T09:03:02.696Z,1900
2018-05-18T09:04:03.260Z,2120
2018-05-18T09:05:03.826Z,2200
2018-05-18T09:06:04.387Z,2345
2018-05-18T09:07:04.940Z,1285
2018-05-18T09:08:05.509Z,1035
2018-05-18T09:09:06.071Z,1705
2018-05-18T09:10:06.684Z,2100
2018-05-18T09:11:07.251Z,1565
2018-05-18T09:12:07.825Z,2340
2018-05-18T09:13:08.393Z,1230
2018-05-18T09:14:08.972Z,2435
2018-05-18T09:15:09.535Z,1080
2018-05-18T09:16:10.099Z,2265
2018-05-18T09:17:10.743Z,1400
2018-05-18T09:18:11.266Z,2490
2018-05-18T09:19:11.856Z,2170
2018-05-18T09:20:12.435Z,1340
2018-05-18T09:21:13.012Z,1535
2018-05-18T09:22:13.585Z,2640
2018-05-18T09:23:14.151Z,2160
2018-05-18T09:24:14.739Z,2680
2018-05-18T09:25:15.305Z,1305
2018-05-18T09:26:15.862Z,1165
2018-05-18T09:27:16.423Z,1145
2018-05-18T09:28:16.997Z,1130
2018-05-18T09:29:17.561Z,1075
2018-05-18T09:30:18.128Z,1020
2018-05-18T09:31:18.694Z,1005
2018-05-18T09:32:19.259Z,1545
2018-05-18T09:33:19.825Z,2390
2018-05-18T09:34:20.455Z,2390
2018-05-18T09:35:20.939Z,2775
2018-05-18T09:36:21.505Z,2320
2018-05-18T09:37:22.070Z,2740
2018-05-18T09:38:22.643Z,1870
2018-05-18T09:39:23.214Z,1790
2018-05-18T09:40:23.781Z,1225
2018-05-18T09:41:24.352Z,1075
2018-05-18T09:42:24.917Z,965
2018-05-18T09:43:25.479Z,910
2018-05-18T09:44:26.046Z,905
2018-05-18T09:45:26.609Z,940
2018-05-18T09:46:27.177Z,1085
2018-05-18T09:47:27.740Z,1420
2018-05-18T09:48:28.312Z,1490
2018-05-18T09:49:28.881Z,2795
2018-05-18T09:50:29.449Z,1715
2018-05-18T09:51:30.024Z,2010
2018-05-18T09:52:30.595Z,3150
2018-05-18T09:53:31.161Z,3235
2018-05-18T09:54:31.886Z,3200
2018-05-18T09:55:32.537Z,1570
2018-05-18T09:56:32.858Z,1475
2018-05-18T09:57:33.425Z,1530
2018-05-18T09:58:33.995Z,1290
2018-05-18T09:59:34.567Z,1180
2018-05-18T10:00:35.137Z,1185
2018-05-18T10:01:35.687Z,1120
2018-05-18T10:02:36.259Z,2770
2018-05-18T10:03:36.822Z,2695
2018-05-18T10:04:37.395Z,2700
2018-05-18T10:05:37.963Z,2735
2018-05-18T10:06:38.531Z,2775
2018-05-18T10:07:39.094Z,2840
2018-05-18T10:08:39.665Z,2975
2018-05-18T10:09:40.231Z,3130
2018-05-18T10:10:40.798Z,3235
2018-05-18T10:11:41.364Z,1595
2018-05-18T10:12:41.933Z,1390
2018-05-18T10:13:42.498Z,1190
2018-05-18T10:14:43.065Z,1135
2018-05-18T10:15:43.629Z,1270
2018-05-18T10:16:44.314Z,2755
2018-05-18T10:17:44.888Z,2770
2018-05-18T10:18:45.456Z,2770
2018-05-18T10:19:46.029Z,2770
2018-05-18T10:20:46.596Z,2850
2018-05-18T10:21:47.171Z,2855
2018-05-18T10:22:47.737Z,2820
2018-05-18T10:23:48.306Z,2095
2018-05-18T10:24:48.872Z,2575
2018-05-18T10:25:49.449Z,2365
2018-05-18T10:26:50.018Z,1285
2018-05-18T10:27:50.587Z,1225
2018-05-18T10:28:51.153Z,1440
2018-05-18T10:29:51.726Z,3000
2018-05-18T10:30:52.296Z,2595
2018-05-18T10:31:52.859Z,1455
2018-05-18T10:32:53.488Z,1435
2018-05-18T10:33:53.991Z,1545
2018-05-18T10:34:54.557Z,2350
2018-05-18T10:35:55.122Z,1910
2018-05-18T10:36:55.700Z,1570
2018-05-18T10:37:56.262Z,1370
2018-05-18T10:38:56.830Z,1290
2018-05-18T10:39:57.399Z,1320
2018-05-18T10:40:57.962Z,2780
2018-05-18T10:41:58.530Z,2435
2018-05-18T10:42:59.097Z,1515
2018-05-18T10:43:59.653Z,1725
2018-05-18T10:45:00.222Z,3410
2018-05-18T10:46:00.788Z,2335
2018-05-18T10:47:01.351Z,1645
2018-05-18T10:48:01.917Z,1470
2018-05-18T10:49:02.492Z,1355
2018-05-18T10:50:03.050Z,1310
2018-05-18T10:51:03.609Z,1350
2018-05-18T10:52:04.177Z,1610
2018-05-18T10:53:04.751Z,2010
2018-05-18T10:54:05.326Z,1450
2018-05-18T10:55:05.891Z,2895
2018-05-18T10:56:06.451Z,1350
2018-05-18T10:57:07.022Z,2020
2018-05-18T10:58:07.652Z,2890
2018-05-18T10:59:08.146Z,2930
2018-05-18T11:00:08.723Z,2850
2018-05-18T11:01:09.289Z,2930
2018-05-18T11:02:09.851Z,2880
2018-05-18T11:03:10.416Z,2880
2018-05-18T11:04:11.101Z,2865
2018-05-18T11:05:11.702Z,2790
2018-05-18T11:06:12.236Z,2705
2018-05-18T11:07:12.800Z,2735
2018-05-18T11:08:13.364Z,2790
2018-05-18T11:09:13.937Z,2690
2018-05-18T11:10:14.504Z,3130
2018-05-18T11:11:15.074Z,3090
2018-05-18T11:12:15.644Z,3070
2018-05-18T11:13:16.211Z,3190
2018-05-18T11:14:16.919Z,3065
2018-05-18T11:15:17.348Z,3105
2018-05-18T11:16:17.918Z,1800
2018-05-18T11:17:18.484Z,3140
2018-05-18T11:18:19.047Z,1525
2018-05-18T11:19:19.616Z,3120
2018-05-18T11:20:20.189Z,3255
2018-05-18T11:21:20.755Z,3205
2018-05-18T11:22:21.330Z,3350
2018-05-18T11:23:21.899Z,3480
2018-05-18T11:24:22.470Z,3310
2018-05-18T11:25:23.038Z,3445
2018-05-18T11:26:23.705Z,2915
2018-05-18T11:27:24.176Z,3315
2018-05-18T11:28:24.747Z,1270
2018-05-18T11:29:25.341Z,2995
2018-05-18T11:30:25.890Z,3315
2018-05-18T11:31:26.483Z,3230
2018-05-18T11:32:27.058Z,3235
2018-05-18T11:33:27.631Z,3270
2018-05-18T11:34:28.201Z,3300
2018-05-18T11:35:28.773Z,3305
2018-05-18T11:36:29.342Z,3375
2018-05-18T11:37:29.915Z,3505
2018-05-18T11:38:30.486Z,3620
2018-05-18T11:39:31.053Z,3625
2018-05-18T11:40:31.621Z,3495
2018-05-18T11:41:32.213Z,3360
2018-05-18T11:42:32.820Z,3350
2018-05-18T11:43:33.411Z,3220
2018-05-18T11:44:33.987Z,3315
2018-05-18T11:45:34.576Z,3280
2018-05-18T11:46:35.158Z,3265
2018-05-18T11:47:36.001Z,3070
2018-05-18T11:48:36.305Z,3180
2018-05-18T11:49:36.879Z,3325
2018-05-18T11:50:37.456Z,3485
2018-05-18T11:51:38.026Z,3385
2018-05-18T11:52:38.607Z,3275
2018-05-18T11:53:39.175Z,3150
2018-05-18T11:54:39.773Z,2235
2018-05-18T11:55:40.325Z,1810
2018-05-18T11:56:40.889Z,2060
2018-05-18T11:57:41.453Z,1515
2018-05-18T11:58:42.025Z,1715
2018-05-18T11:59:42.602Z,2260
2018-05-18T12:00:43.159Z,2105
2018-05-18T12:01:43.728Z,2665
2018-05-18T12:02:44.297Z,3555
2018-05-18T12:03:44.873Z,3125
2018-05-18T12:04:45.442Z,3620
2018-05-18T12:05:46.004Z,1770
2018-05-18T12:06:46.567Z,3600
2018-05-18T12:07:47.134Z,2630
2018-05-18T12:08:47.703Z,3545
2018-05-18T12:09:48.270Z,2625
2018-05-18T12:10:48.841Z,2170
2018-05-18T12:11:49.407Z,3520
2018-05-18T12:12:49.977Z,3420
2018-05-18T12:13:50.541Z,3420
2018-05-18T12:14:51.107Z,1285
2018-05-18T12:15:51.681Z,2050
2018-05-18T12:16:52.239Z,3150
2018-05-18T12:17:52.808Z,2525
2018-05-18T12:18:53.377Z,3445
2018-05-18T12:19:53.953Z,3435
2018-05-18T12:20:54.534Z,3215
2018-05-18T12:21:55.099Z,3430
2018-05-18T12:22:55.668Z,3440
2018-05-18T12:23:56.238Z,3525
2018-05-18T12:24:56.808Z,3505
2018-05-18T12:25:57.387Z,3230
2018-05-18T12:26:57.948Z,2970
2018-05-18T12:27:58.523Z,2800
2018-05-18T12:28:59.100Z,2500
2018-05-18T12:29:59.666Z,1940
2018-05-18T12:31:00.239Z,1695
2018-05-18T12:32:00.809Z,2055
2018-05-18T12:33:01.373Z,2235
2018-05-18T12:34:01.950Z,2260
2018-05-18T12:35:02.518Z,2535
2018-05-18T12:36:03.081Z,2850
2018-05-18T12:37:03.649Z,2910
2018-05-18T12:38:04.253Z,2640
2018-05-18T12:39:04.784Z,2975
2018-05-18T12:40:05.355Z,3030
2018-05-18T12:41:05.919Z,3060
2018-05-18T12:42:06.488Z,3110
2018-05-18T12:43:07.054Z,3210
2018-05-18T12:44:07.625Z,3295
2018-05-18T12:45:08.197Z,3300
2018-05-18T12:46:08.775Z,3245
2018-05-18T12:47:09.333Z,3245
2018-05-18T12:48:09.904Z,3235
2018-05-18T12:49:10.471Z,3220
2018-05-18T12:50:11.031Z,3125
2018-05-18T12:51:11.592Z,2685
2018-05-18T12:52:12.161Z,2890
2018-05-18T12:53:12.730Z,3015
2018-05-18T12:54:13.297Z,2800
2018-05-18T12:55:13.862Z,2750
2018-05-18T12:56:14.428Z,2430
2018-05-18T12:57:15.000Z,1525
2018-05-18T12:58:15.573Z,1235
2018-05-18T12:59:16.161Z,1150
2018-05-18T13:00:16.743Z,1120
2018-05-18T13:01:17.313Z,1110
2018-05-18T13:02:17.879Z,1115
2018-05-18T13:03:18.453Z,1125
2018-05-18T13:04:19.022Z,1130
2018-05-18T13:05:19.590Z,1110
2018-05-18T13:06:20.155Z,1145
2018-05-18T13:07:20.781Z,1245
2018-05-18T13:08:21.291Z,1575
2018-05-18T13:09:21.855Z,2045
2018-05-18T13:10:22.425Z,2265
2018-05-18T13:11:22.993Z,2130
2018-05-18T13:12:23.561Z,2150
2018-05-18T13:13:24.139Z,2020
2018-05-18T13:14:24.706Z,1900
2018-05-18T13:15:25.276Z,1770
2018-05-18T13:16:25.838Z,1920
2018-05-18T13:17:26.408Z,2220
2018-05-18T13:18:26.976Z,2315
2018-05-18T13:19:27.553Z,2380
2018-05-18T13:20:28.117Z,2350
2018-05-18T13:21:28.693Z,2110
2018-05-18T13:22:29.261Z,1955
2018-05-18T13:23:29.834Z,2085
2018-05-18T13:24:30.398Z,2085
2018-05-18T13:25:30.963Z,2070
2018-05-18T13:26:31.527Z,1775
2018-05-18T13:27:32.097Z,1695
2018-05-18T13:28:32.659Z,1790
2018-05-18T13:29:33.224Z,2005
2018-05-18T13:30:33.801Z,1885
2018-05-18T13:31:34.357Z,1895
2018-05-18T13:32:34.925Z,2095
2018-05-18T13:33:35.488Z,2235
2018-05-18T13:34:36.055Z,2530
2018-05-18T13:35:36.618Z,2605
2018-05-18T13:36:37.180Z,2580
2018-05-18T13:37:37.745Z,2420
2018-05-18T13:38:38.358Z,2645
2018-05-18T13:39:38.871Z,2665
2018-05-18T13:40:39.441Z,2595
2018-05-18T13:41:40.005Z,2470
2018-05-18T13:42:40.569Z,2090
2018-05-18T13:43:41.136Z,1780
2018-05-18T13:44:41.754Z,1795
2018-05-18T13:45:42.277Z,1615
2018-05-18T13:46:42.842Z,1635
2018-05-18T13:47:43.406Z,1685
2018-05-18T13:48:43.965Z,1970
2018-05-18T13:49:44.527Z,1815
2018-05-18T13:50:45.098Z,2325
2018-05-18T13:51:45.731Z,2180
2018-05-18T13:52:46.215Z,2215
2018-05-18T13:53:46.777Z,2320
2018-05-18T13:54:47.352Z,2265
2018-05-18T13:55:47.914Z,2135
2018-05-18T13:56:48.478Z,1895
2018-05-18T13:57:49.043Z,2150
2018-05-18T13:58:49.614Z,2000
2018-05-18T13:59:50.176Z,1825